Time;durP1;ratioP1;P1;durP2;ratioP2;P2;SDS_P1;SDS_P2;PMS_P1;PMS_P2;Temp;Humidity;BMP_temperature;BMP_pressure;BME280_temperature;BME280_humidity;BME280_pressure;Samples;Min_cycle;Max_cycle;Signal;HPM_P1;HPM_P2
2023/03/05 00:01:32;;;;;;;11.38;2.33;;;;;;;2.62;76.16;101954.47;7392404;19;20002;-58
2023/03/05 00:03:58;;;;;;;11.75;2.33;;;;;;;2.62;75.76;101953.63;7394180;19;20890;-61
2023/03/05 00:06:26;;;;;;;9.88;2.40;;;;;;;2.56;75.97;101952.03;7393623;19;20007;-59
2023/03/05 00:08:52;;;;;;;10.43;2.10;;;;;;;2.58;76.15;101949.38;7393888;19;20002;-58
2023/03/05 00:11:18;;;;;;;11.85;2.47;;;;;;;2.57;76.20;101943.25;7393643;19;20319;-59
2023/03/05 00:13:44;;;;;;;13.60;2.75;;;;;;;2.67;75.56;101950.84;7393911;19;20002;-58
2023/03/05 00:16:12;;;;;;;13.13;2.72;;;;;;;2.68;75.47;101939.44;7393594;19;20356;-59
2023/03/05 00:18:38;;;;;;;12.20;2.42;;;;;;;2.63;75.46;101950.09;7393484;19;19995;-59
2023/03/05 00:21:05;;;;;;;15.60;3.00;;;;;;;2.62;75.51;101937.88;7393278;19;19997;-59
2023/03/05 00:23:30;;;;;;;9.95;3.17;;;;;;;2.66;75.24;101938.66;7391438;19;20361;-60
2023/03/05 00:25:59;;;;;;;8.98;2.50;;;;;;;2.61;75.15;101933.50;7392379;19;19990;-59
2023/03/05 00:28:24;;;;;;;13.93;3.08;;;;;;;2.57;75.07;101931.88;7392126;19;20497;-61
2023/03/05 00:30:50;;;;;;;15.18;4.05;;;;;;;2.60;75.32;101942.28;7392579;19;19998;-60
2023/03/05 00:33:15;;;;;;;15.93;4.10;;;;;;;2.57;74.93;101935.38;7394615;19;20004;-58
2023/03/05 00:35:43;;;;;;;14.75;3.65;;;;;;;2.62;74.75;101937.88;7392618;19;20027;-59
2023/03/05 00:38:16;;;;;;;15.52;4.13;;;;;;;2.71;74.45;101921.84;7391487;19;20476;-58
2023/03/05 00:40:41;;;;;;;16.53;4.43;;;;;;;2.69;74.18;101931.50;7388166;19;20491;-58
2023/03/05 00:43:08;;;;;;;15.68;5.15;;;;;;;2.66;74.22;101936.03;7392430;19;20006;-58
2023/03/05 00:45:34;;;;;;;14.50;4.65;;;;;;;2.64;74.31;101923.78;7390695;19;20009;-60
2023/03/05 00:48:00;;;;;;;14.60;4.28;;;;;;;2.63;74.37;101921.22;7392208;19;20014;-57
2023/03/05 00:50:26;;;;;;;11.65;4.25;;;;;;;2.60;74.26;101921.31;7390315;19;20027;-59
2023/03/05 00:52:51;;;;;;;14.93;4.95;;;;;;;2.56;74.46;101920.53;7390787;19;20010;-59
2023/03/05 00:55:17;;;;;;;14.63;4.25;;;;;;;2.54;75.26;101911.00;7390860;19;20036;-59
2023/03/05 00:57:43;;;;;;;14.82;4.50;;;;;;;2.51;75.30;101906.72;7391184;19;19998;-58
2023/03/05 01:00:09;;;;;;;13.18;3.83;;;;;;;2.58;75.24;101895.13;7389079;19;19999;-59
2023/03/05 01:02:34;;;;;;;14.95;4.10;;;;;;;2.51;75.55;101903.25;7391747;19;20002;-58
2023/03/05 01:05:00;;;;;;;11.93;4.30;;;;;;;2.51;75.88;101901.47;7390778;19;19998;-58
2023/03/05 01:07:25;;;;;;;16.40;5.38;;;;;;;2.46;75.99;101907.75;7391317;19;20002;-58
2023/03/05 01:09:51;;;;;;;14.43;4.10;;;;;;;2.47;75.78;101896.38;7390466;19;20003;-59
2023/03/05 01:12:16;;;;;;;9.40;2.50;;;;;;;2.40;75.99;101898.31;7391502;19;20686;-59
2023/03/05 01:14:42;;;;;;;12.95;2.50;;;;;;;2.42;75.87;101906.13;7390976;19;20010;-59
2023/03/05 01:17:07;;;;;;;13.45;2.28;;;;;;;2.38;75.68;101892.22;7390714;19;20348;-58
2023/03/05 01:19:33;;;;;;;11.25;2.97;;;;;;;2.37;76.05;101898.38;7390234;19;20097;-59
2023/03/05 01:21:58;;;;;;;12.75;3.58;;;;;;;2.37;75.83;101899.25;7389921;19;20002;-59
2023/03/05 01:24:24;;;;;;;13.82;4.22;;;;;;;2.43;76.04;101897.34;7389352;19;20459;-59
2023/03/05 01:26:49;;;;;;;13.98;4.20;;;;;;;2.38;75.95;101890.47;7391083;19;20054;-59
2023/03/05 01:29:15;;;;;;;11.38;4.00;;;;;;;2.40;76.18;101888.66;7390651;19;20002;-58
2023/03/05 01:31:40;;;;;;;10.88;2.58;;;;;;;2.45;76.00;101890.28;7390717;19;20022;-58
2023/03/05 01:34:06;;;;;;;10.70;3.28;;;;;;;2.42;76.33;101875.50;7390989;19;19991;-59
2023/03/05 01:36:32;;;;;;;10.77;2.25;;;;;;;2.44;76.25;101884.19;7390300;19;19991;-60
2023/03/05 01:38:57;;;;;;;10.15;2.53;;;;;;;2.42;76.67;101877.25;7390784;19;20003;-60
2023/03/05 01:41:23;;;;;;;11.13;3.50;;;;;;;2.40;76.62;101864.22;7387777;19;20034;-60
2023/03/05 01:43:48;;;;;;;10.85;2.75;;;;;;;2.43;76.54;101864.13;7390659;19;20392;-60
2023/03/05 01:46:28;;;;;;;14.60;4.28;;;;;;;2.40;76.12;101864.22;7390922;19;20556;-59
2023/03/05 01:49:16;;;;;;;12.13;3.08;;;;;;;2.40;76.52;101851.09;7390380;19;20003;-61
2023/03/05 01:51:48;;;;;;;10.27;2.90;;;;;;;2.42;76.69;101851.03;7390424;19;20010;-59
2023/03/05 01:54:16;;;;;;;14.98;3.65;;;;;;;2.48;76.27;101848.25;7390416;19;20033;-60
2023/03/05 01:56:48;;;;;;;10.20;3.22;;;;;;;2.51;76.03;101843.78;7390007;19;20002;-59
2023/03/05 01:59:15;;;;;;;10.43;3.20;;;;;;;2.46;76.54;101845.66;7389388;19;20006;-59
2023/03/05 02:01:44;;;;;;;7.85;2.10;;;;;;;2.45;76.70;101838.69;7389456;19;19999;-60
2023/03/05 02:04:15;;;;;;;11.40;2.95;;;;;;;2.44;76.37;101838.75;7390514;19;20035;-60
2023/03/05 02:06:42;;;;;;;10.80;3.38;;;;;;;2.37;77.21;101844.19;7389931;19;20003;-59
2023/03/05 02:09:07;;;;;;;11.10;3.03;;;;;;;2.37;77.00;101841.56;7389913;19;20451;-59
2023/03/05 02:11:33;;;;;;;9.35;2.90;;;;;;;2.37;76.87;101835.47;7390049;19;19999;-59
2023/03/05 02:14:00;;;;;;;10.88;2.42;;;;;;;2.33;77.36;101833.84;7390238;19;20006;-59
2023/03/05 02:16:25;;;;;;;16.30;3.25;;;;;;;2.38;77.30;101826.69;7389606;19;20028;-59
2023/03/05 02:18:50;;;;;;;9.15;2.40;;;;;;;2.40;77.33;101824.88;7389567;19;20007;-59
2023/03/05 02:21:27;;;;;;;14.95;2.72;;;;;;;2.43;77.23;101819.53;7390238;19;20559;-59
2023/03/05 02:23:53;;;;;;;9.93;2.83;;;;;;;2.38;77.39;101813.56;7390071;19;20455;-60
2023/03/05 02:26:18;;;;;;;7.85;2.50;;;;;;;2.42;77.54;101811.72;7389714;19;20071;-58
2023/03/05 02:28:50;;;;;;;7.72;2.85;;;;;;;2.36;77.26;101797.88;7389982;19;20010;-61
2023/03/05 02:31:19;;;;;;;10.15;3.25;;;;;;;2.42;77.11;101806.47;7390252;19;20003;-62
2023/03/05 02:33:45;;;;;;;9.27;3.50;;;;;;;2.40;76.91;101801.28;7390290;19;19999;-61
2023/03/05 02:36:11;;;;;;;13.25;3.03;;;;;;;2.37;76.50;101788.25;7389205;19;20429;-59
2023/03/05 02:38:38;;;;;;;8.68;2.97;;;;;;;2.42;76.51;101788.97;7386974;19;19995;-60
2023/03/05 02:41:04;;;;;;;12.15;2.63;;;;;;;2.40;75.15;101782.91;7388133;19;20010;-59
2023/03/05 02:43:29;;;;;;;9.77;3.40;;;;;;;2.35;75.50;101787.44;7389177;19;19999;-59
2023/03/05 02:45:55;;;;;;;10.23;4.03;;;;;;;2.28;75.65;101786.78;7387197;19;20080;-59
2023/03/05 02:48:20;;;;;;;12.07;3.50;;;;;;;2.30;75.92;101778.88;7389841;19;19999;-59
2023/03/05 02:50:47;;;;;;;11.05;3.17;;;;;;;2.32;76.03;101790.16;7387329;19;20454;-59
2023/03/05 02:53:12;;;;;;;7.70;2.80;;;;;;;2.28;76.27;101778.06;7393706;19;19999;-58
2023/03/05 02:55:38;;;;;;;10.40;3.03;;;;;;;2.24;75.96;101779.94;7395932;19;20015;-58
2023/03/05 02:58:04;;;;;;;10.23;3.20;;;;;;;2.29;75.72;101775.38;7392925;19;19995;-58
2023/03/05 03:00:29;;;;;;;12.85;3.75;;;;;;;2.37;75.74;101770.75;7392500;19;19998;-59
2023/03/05 03:02:55;;;;;;;10.00;3.05;;;;;;;2.42;75.81;101770.59;7395969;19;20003;-59
2023/03/05 03:05:20;;;;;;;7.80;2.70;;;;;;;2.29;76.19;101771.91;7393536;19;20511;-59
2023/03/05 03:07:45;;;;;;;8.75;2.70;;;;;;;2.31;76.09;101762.22;7396269;19;20340;-59
2023/03/05 03:10:11;;;;;;;7.20;2.63;;;;;;;2.29;76.38;101762.28;7394313;19;20711;-60
2023/03/05 03:12:42;;;;;;;11.05;2.42;;;;;;;2.21;76.97;101760.81;7396462;19;20002;-59
2023/03/05 03:15:09;;;;;;;8.55;2.28;;;;;;;2.22;76.71;101757.28;7393576;19;20023;-59
2023/03/05 03:17:35;;;;;;;5.75;1.95;;;;;;;2.30;76.76;101760.50;7393479;19;19995;-60
2023/03/05 03:20:03;;;;;;;6.75;1.88;;;;;;;2.32;76.68;101753.47;7393555;19;20002;-60
2023/03/05 03:22:29;;;;;;;5.97;1.95;;;;;;;2.26;76.75;101744.00;7396229;19;20011;-59
2023/03/05 03:24:55;;;;;;;5.25;1.60;;;;;;;2.27;76.75;101743.09;7395372;19;20463;-59
2023/03/05 03:27:21;;;;;;;8.20;1.95;;;;;;;2.32;76.75;101738.59;7394187;19;20340;-59
2023/03/05 03:29:47;;;;;;;6.97;1.70;;;;;;;2.36;76.60;101739.34;7393635;19;20022;-58
2023/03/05 03:32:12;;;;;;;9.65;1.90;;;;;;;2.33;76.65;101736.81;7394905;19;19994;-60
2023/03/05 03:34:38;;;;;;;7.28;2.08;;;;;;;2.27;77.05;101731.75;7394389;19;20091;-59
2023/03/05 03:37:03;;;;;;;5.88;1.98;;;;;;;2.31;76.74;101739.50;7393989;19;20009;-59
2023/03/05 03:39:29;;;;;;;10.07;2.35;;;;;;;2.31;77.29;101736.00;7393639;19;20022;-59
2023/03/05 03:41:55;;;;;;;10.45;2.70;;;;;;;2.27;77.41;101737.00;7394181;19;20003;-59
2023/03/05 03:44:21;;;;;;;8.20;2.42;;;;;;;2.30;77.18;101737.75;7394988;19;20023;-60
2023/03/05 03:46:49;;;;;;;8.75;2.55;;;;;;;2.34;77.20;101734.13;7394869;19;20471;-58
2023/03/05 03:49:18;;;;;;;12.50;4.90;;;;;;;2.35;77.29;101728.00;7391807;19;20007;-59
2023/03/05 03:51:44;;;;;;;11.77;5.45;;;;;;;2.34;77.29;101733.28;7394674;19;20013;-59
2023/03/05 03:54:10;;;;;;;12.60;5.05;;;;;;;2.30;77.67;101731.66;7394067;19;20324;-58
2023/03/05 03:56:35;;;;;;;17.33;7.00;;;;;;;2.25;77.68;101717.84;7393804;19;20056;-62
2023/03/05 03:59:01;;;;;;;16.35;6.82;;;;;;;2.15;77.99;101726.00;7393370;19;20008;-62
2023/03/05 04:01:26;;;;;;;20.15;8.25;;;;;;;2.12;77.71;101714.75;7394167;19;20046;-59
2023/03/05 04:03:52;;;;;;;16.27;5.47;;;;;;;2.11;78.16;101711.28;7392852;19;20002;-59
2023/03/05 04:06:17;;;;;;;15.20;5.88;;;;;;;2.21;77.74;101718.88;7393073;19;20301;-58
2023/03/05 04:08:43;;;;;;;15.27;5.88;;;;;;;2.09;78.15;101707.00;7393501;19;20003;-59
2023/03/05 04:11:08;;;;;;;15.80;5.53;;;;;;;2.04;78.46;101701.88;7391963;19;20002;-59
2023/03/05 04:13:34;;;;;;;15.65;6.15;;;;;;;2.05;78.71;101702.75;7393968;19;20006;-59
2023/03/05 04:15:59;;;;;;;17.60;6.18;;;;;;;2.04;78.54;101701.03;7392552;19;19994;-60
2023/03/05 04:18:25;;;;;;;16.98;6.68;;;;;;;2.11;78.47;101697.31;7392033;19;20002;-60
2023/03/05 04:20:50;;;;;;;15.32;5.47;;;;;;;2.17;78.15;101698.91;7393191;19;20038;-60
2023/03/05 04:23:16;;;;;;;13.60;4.85;;;;;;;2.19;78.44;101691.81;7393214;19;20360;-59
2023/03/05 04:25:42;;;;;;;9.73;3.00;;;;;;;2.18;78.35;101687.50;7392316;19;19999;-59
2023/03/05 04:28:09;;;;;;;10.20;3.25;;;;;;;2.16;78.16;101690.19;7392174;19;20050;-59
2023/03/05 04:30:34;;;;;;;9.95;2.20;;;;;;;2.07;78.08;101686.06;7391772;19;20481;-59
2023/03/05 04:33:00;;;;;;;10.05;2.92;;;;;;;2.10;77.99;101693.84;7391754;19;19995;-59
2023/03/05 04:35:25;;;;;;;10.57;2.97;;;;;;;2.11;77.85;101682.44;7392414;19;20074;-59
2023/03/05 04:37:51;;;;;;;8.80;2.55;;;;;;;2.10;78.22;101683.34;7392535;19;20473;-59
2023/03/05 04:40:17;;;;;;;7.20;2.28;;;;;;;2.07;78.25;101686.06;7385848;19;20102;-55
2023/03/05 04:42:43;;;;;;;7.68;2.25;;;;;;;2.08;78.33;101684.28;7396340;19;20010;-57
2023/03/05 04:45:09;;;;;;;10.85;2.45;;;;;;;2.11;78.69;101689.44;7392386;19;20064;-56
2023/03/05 04:47:35;;;;;;;7.55;2.35;;;;;;;2.09;78.41;101676.41;7391129;19;20002;-57
2023/03/05 04:50:01;;;;;;;8.68;2.70;;;;;;;2.13;78.35;101674.56;7390892;19;20022;-59
2023/03/05 04:52:26;;;;;;;13.75;4.43;;;;;;;2.15;78.24;101673.56;7391921;19;20015;-58
2023/03/05 04:54:53;;;;;;;9.35;3.42;;;;;;;2.17;78.02;101670.91;7391595;19;20002;-57
2023/03/05 04:57:18;;;;;;;9.90;3.10;;;;;;;2.06;78.35;101670.41;7392019;19;20028;-58
2023/03/05 04:59:44;;;;;;;9.65;2.58;;;;;;;2.03;78.55;101657.38;7392019;19;19995;-58
2023/03/05 05:02:09;;;;;;;5.43;1.77;;;;;;;2.08;78.78;101660.72;7391894;19;20353;-57
2023/03/05 05:04:35;;;;;;;9.13;2.75;;;;;;;2.06;78.62;101657.31;7391909;19;20668;-58
2023/03/05 05:07:00;;;;;;;10.35;2.92;;;;;;;2.11;78.43;101652.75;7392098;19;20442;-58
2023/03/05 05:09:26;;;;;;;5.75;1.80;;;;;;;2.19;78.08;101653.34;7391764;19;20443;-56
2023/03/05 05:11:52;;;;;;;5.57;1.90;;;;;;;2.13;78.30;101656.19;7389951;19;20001;-58
2023/03/05 05:14:17;;;;;;;8.98;2.13;;;;;;;2.18;78.11;101662.13;7391256;19;19999;-58
2023/03/05 05:16:43;;;;;;;7.22;2.60;;;;;;;2.17;78.09;101656.97;7389269;19;19995;-58
2023/03/05 05:19:09;;;;;;;11.68;4.05;;;;;;;2.20;77.72;101654.22;7390599;19;19998;-58
2023/03/05 05:21:34;;;;;;;11.15;3.10;;;;;;;2.10;77.71;101649.28;7391771;19;20073;-58
2023/03/05 05:24:00;;;;;;;11.07;3.30;;;;;;;2.10;77.35;101653.66;7390124;19;20005;-57
2023/03/05 05:26:26;;;;;;;9.35;3.05;;;;;;;2.09;77.50;101658.06;7391094;19;20495;-59
2023/03/05 05:28:52;;;;;;;11.80;2.78;;;;;;;2.12;77.28;101650.09;7390782;19;20838;-56
2023/03/05 05:31:17;;;;;;;11.40;3.20;;;;;;;1.96;78.08;101643.63;7391888;19;19999;-56
2023/03/05 05:33:43;;;;;;;11.30;3.20;;;;;;;1.93;77.85;101651.59;7391634;19;20352;-56
2023/03/05 05:36:12;;;;;;;11.38;3.95;;;;;;;2.02;77.48;101650.44;7390295;19;20006;-57
2023/03/05 05:38:37;;;;;;;11.27;4.03;;;;;;;2.01;77.50;101646.97;7389982;19;20022;-58
2023/03/05 05:41:05;;;;;;;9.82;3.03;;;;;;;2.00;77.49;101647.84;7388598;19;20007;-57
2023/03/05 05:43:31;;;;;;;5.55;2.30;;;;;;;1.93;78.06;101641.13;7391115;19;19999;-57
2023/03/05 05:46:02;;;;;;;6.22;1.95;;;;;;;1.82;78.23;101637.97;7388267;19;20507;-57
2023/03/05 05:48:29;;;;;;;4.30;1.67;;;;;;;1.73;78.74;101639.09;7391110;19;20231;-57
2023/03/05 05:50:55;;;;;;;4.72;1.67;;;;;;;1.74;78.42;101640.84;7390302;19;20007;-57
2023/03/05 05:53:27;;;;;;;7.47;1.45;;;;;;;1.65;78.48;101634.09;7391157;19;20562;-57
2023/03/05 05:55:52;;;;;;;6.72;2.03;;;;;;;1.64;78.85;101635.00;7388582;19;20334;-57
2023/03/05 05:58:18;;;;;;;9.48;2.33;;;;;;;1.70;79.03;101638.34;7389588;19;19998;-57
2023/03/05 06:00:43;;;;;;;10.98;3.75;;;;;;;1.64;79.06;101635.00;7389011;19;20062;-57
2023/03/05 06:03:09;;;;;;;10.27;3.53;;;;;;;1.69;78.85;101634.88;7390792;19;19998;-56
2023/03/05 06:05:34;;;;;;;8.07;3.00;;;;;;;1.70;78.66;101630.47;7389239;19;19987;-57
2023/03/05 06:08:00;;;;;;;8.73;3.28;;;;;;;1.78;79.02;101636.38;7390249;19;19995;-58
2023/03/05 06:10:26;;;;;;;10.65;3.20;;;;;;;1.73;78.40;101631.25;7388685;19;19995;-59
2023/03/05 06:12:51;;;;;;;8.75;3.00;;;;;;;1.79;78.32;101630.22;7390442;19;20070;-58
2023/03/05 06:15:18;;;;;;;9.88;3.10;;;;;;;1.77;77.75;101634.63;7389876;19;19991;-58
2023/03/05 06:17:46;;;;;;;10.52;2.97;;;;;;;1.83;77.51;101637.91;7389935;19;19998;-58
2023/03/05 06:20:19;;;;;;;12.23;5.45;;;;;;;1.84;77.44;101641.41;7388969;19;20010;-57
2023/03/05 06:22:44;;;;;;;15.73;5.78;;;;;;;1.89;77.40;101645.59;7390712;19;20014;-57
2023/03/05 06:25:10;;;;;;;19.95;6.03;;;;;;;1.98;76.92;101644.44;7388980;19;20002;-56
2023/03/05 06:27:36;;;;;;;14.23;4.32;;;;;;;2.08;76.57;101635.38;7395573;19;19994;-56
2023/03/05 06:30:02;;;;;;;12.35;4.45;;;;;;;2.15;76.50;101644.75;7394438;19;20091;-55
2023/03/05 06:32:27;;;;;;;15.23;5.25;;;;;;;2.18;76.29;101650.81;7398316;19;20001;-55
2023/03/05 06:34:53;;;;;;;11.82;4.15;;;;;;;2.19;76.57;101663.00;7397082;19;20335;-57
2023/03/05 06:37:18;;;;;;;11.43;3.75;;;;;;;2.32;76.51;101664.31;7396404;19;19998;-57
2023/03/05 06:39:44;;;;;;;11.13;3.22;;;;;;;2.30;76.07;101663.50;7395956;19;20014;-56
2023/03/05 06:42:09;;;;;;;8.82;2.55;;;;;;;2.06;76.40;101652.91;7397196;19;19991;-56
2023/03/05 06:44:41;;;;;;;5.38;1.75;;;;;;;1.96;77.09;101658.50;7396139;19;20335;-55
2023/03/05 06:47:09;;;;;;;6.78;1.85;;;;;;;1.95;77.44;101657.63;7397146;19;19999;-56
2023/03/05 06:49:38;;;;;;;8.52;1.75;;;;;;;1.86;77.69;101656.16;7396780;19;20006;-55
2023/03/05 06:52:05;;;;;;;4.97;1.55;;;;;;;1.80;77.69;101651.09;7397046;19;20477;-57
2023/03/05 06:54:31;;;;;;;4.50;1.33;;;;;;;1.89;77.50;101653.47;7395760;19;19999;-58
2023/03/05 06:56:56;;;;;;;5.47;1.35;;;;;;;1.92;77.60;101652.47;7396253;19;20472;-56
2023/03/05 06:59:22;;;;;;;5.43;1.88;;;;;;;1.94;77.02;101645.44;7395736;19;20038;-56
2023/03/05 07:01:47;;;;;;;4.90;1.55;;;;;;;1.99;77.27;101647.91;7396615;19;20002;-58
2023/03/05 07:04:14;;;;;;;11.02;1.83;;;;;;;1.91;77.78;101656.88;7394574;19;19998;-57
2023/03/05 07:06:41;;;;;;;7.70;2.53;;;;;;;1.92;77.73;101649.88;7397840;19;20466;-58
2023/03/05 07:09:07;;;;;;;9.63;3.13;;;;;;;1.96;77.48;101645.38;7395738;19;20007;-57
2023/03/05 07:11:34;;;;;;;13.00;4.40;;;;;;;2.09;77.38;101647.56;7396356;19;20058;-57
2023/03/05 07:13:59;;;;;;;25.58;12.02;;;;;;;2.09;77.32;101651.97;7395893;19;20702;-56
2023/03/05 07:16:28;;;;;;;24.42;10.07;;;;;;;2.11;77.26;101656.22;7395370;19;20003;-57
2023/03/05 07:18:56;;;;;;;11.90;4.93;;;;;;;2.04;77.35;101648.63;7394116;19;19998;-55
2023/03/05 07:21:27;;;;;;;11.32;4.05;;;;;;;2.08;77.40;101648.50;7395968;19;20470;-56
2023/03/05 07:23:54;;;;;;;9.50;3.15;;;;;;;2.15;76.84;101647.34;7395280;19;20022;-57
2023/03/05 07:26:20;;;;;;;6.90;2.38;;;;;;;2.19;76.15;101639.41;7394710;19;20006;-56
2023/03/05 07:28:45;;;;;;;8.02;1.65;;;;;;;2.23;76.23;101643.63;7393228;19;20010;-55
2023/03/05 07:31:14;;;;;;;10.50;2.38;;;;;;;2.15;76.41;101638.63;7393002;19;20010;-57
2023/03/05 07:33:39;;;;;;;6.65;2.13;;;;;;;2.31;76.45;101642.50;7393428;19;20019;-56
2023/03/05 07:36:08;;;;;;;7.10;2.28;;;;;;;2.29;75.57;101646.06;7394859;19;20306;-58
2023/03/05 07:38:34;;;;;;;9.90;2.10;;;;;;;2.25;75.58;101647.94;7391325;19;20006;-58
2023/03/05 07:41:04;;;;;;;8.05;2.35;;;;;;;2.29;75.85;101644.28;7393015;19;20054;-57
2023/03/05 07:43:30;;;;;;;9.32;2.20;;;;;;;2.23;75.93;101646.25;7395063;19;19999;-58
2023/03/05 07:45:55;;;;;;;7.57;1.80;;;;;;;2.22;76.39;101650.66;7393736;19;20013;-57
2023/03/05 07:48:21;;;;;;;5.45;1.90;;;;;;;2.19;76.29;101636.78;7394949;19;20451;-58
2023/03/05 07:50:47;;;;;;;8.30;1.77;;;;;;;2.18;76.32;101629.84;7392927;19;19998;-58
2023/03/05 07:53:13;;;;;;;8.23;1.77;;;;;;;2.25;76.16;101633.97;7395341;19;20054;-57
2023/03/05 07:55:43;;;;;;;8.85;1.40;;;;;;;2.32;75.98;101632.84;7394055;19;20068;-58
2023/03/05 07:58:09;;;;;;;4.55;1.40;;;;;;;2.41;75.63;101637.78;7393681;19;19994;-58
2023/03/05 08:00:35;;;;;;;5.85;1.70;;;;;;;2.42;75.39;101621.13;7392647;19;20028;-57
2023/03/05 08:03:00;;;;;;;6.18;1.52;;;;;;;2.42;74.66;101626.38;7394488;19;20379;-57
2023/03/05 08:05:26;;;;;;;4.95;1.60;;;;;;;2.35;74.84;101619.63;7391686;19;20464;-58
2023/03/05 08:07:51;;;;;;;6.43;1.92;;;;;;;2.46;74.84;101620.13;7394116;19;20329;-58
2023/03/05 08:10:17;;;;;;;7.60;2.15;;;;;;;2.50;74.08;101615.63;7392680;19;20320;-57
2023/03/05 08:12:42;;;;;;;9.43;2.90;;;;;;;2.58;73.99;101611.84;7393694;19;20011;-56
2023/03/05 08:15:08;;;;;;;11.65;3.58;;;;;;;2.63;73.67;101619.53;7391654;19;20003;-57
2023/03/05 08:17:33;;;;;;;9.00;2.42;;;;;;;2.77;73.54;101621.66;7392931;19;20025;-57
2023/03/05 08:20:03;;;;;;;11.60;2.80;;;;;;;2.74;73.99;101604.28;7392380;19;20017;-58
2023/03/05 08:22:29;;;;;;;8.20;3.00;;;;;;;2.78;74.22;101605.03;7394129;19;20002;-57
2023/03/05 08:24:54;;;;;;;11.15;3.30;;;;;;;2.66;74.95;101605.47;7393143;19;20024;-57
2023/03/05 08:27:20;;;;;;;7.82;2.55;;;;;;;2.48;74.53;101606.97;7393115;19;19987;-58
2023/03/05 08:29:45;;;;;;;9.20;3.05;;;;;;;2.54;75.00;101611.97;7390668;19;20010;-58
2023/03/05 08:32:11;;;;;;;10.85;3.47;;;;;;;2.56;75.04;101605.78;7393372;19;19999;-57
2023/03/05 08:34:36;;;;;;;9.90;3.33;;;;;;;2.62;74.90;101604.72;7391262;19;19994;-57
2023/03/05 08:37:02;;;;;;;10.20;3.58;;;;;;;2.75;74.40;101605.13;7392377;19;20315;-58
2023/03/05 08:39:29;;;;;;;11.07;3.10;;;;;;;2.85;73.85;101590.78;7390516;19;20002;-58
2023/03/05 08:41:54;;;;;;;11.70;3.20;;;;;;;2.94;73.60;101587.81;7389089;19;20007;-58
2023/03/05 08:44:19;;;;;;;8.73;3.17;;;;;;;2.95;73.71;101584.28;7391664;19;19995;-58
2023/03/05 08:46:45;;;;;;;9.75;3.00;;;;;;;3.12;73.12;101584.50;7392218;19;20091;-57
2023/03/05 08:49:10;;;;;;;15.95;3.38;;;;;;;3.31;72.51;101583.81;7392390;19;19994;-57
2023/03/05 08:51:36;;;;;;;14.38;3.20;;;;;;;3.34;72.12;101578.41;7393033;19;19999;-58
2023/03/05 08:54:05;;;;;;;7.72;2.10;;;;;;;3.30;70.81;101580.34;7392331;19;20459;-58
2023/03/05 08:56:31;;;;;;;14.48;3.53;;;;;;;3.30;72.21;101582.97;7391860;19;19998;-58
2023/03/05 08:58:57;;;;;;;11.60;3.10;;;;;;;3.35;71.96;101588.88;7390974;19;19998;-58
2023/03/05 09:01:22;;;;;;;13.82;3.03;;;;;;;3.41;71.72;101574.66;7392434;19;19999;-58
2023/03/05 09:03:48;;;;;;;7.20;2.08;;;;;;;3.46;71.75;101577.97;7392381;19;20343;-58
2023/03/05 09:06:14;;;;;;;10.55;2.60;;;;;;;3.38;72.14;101578.28;7390085;19;19994;-57
2023/03/05 09:08:39;;;;;;;9.88;2.35;;;;;;;3.37;72.74;101579.16;7392464;19;19995;-57
2023/03/05 09:11:07;;;;;;;5.70;2.30;;;;;;;3.26;72.51;101580.50;7390106;19;20007;-57
2023/03/05 09:13:33;;;;;;;7.32;1.50;;;;;;;3.17;71.71;101572.97;7392541;19;20002;-57
2023/03/05 09:16:04;;;;;;;6.68;1.30;;;;;;;3.08;72.11;101572.41;7389945;19;20487;-57
2023/03/05 09:18:30;;;;;;;5.55;1.40;;;;;;;3.07;72.37;101572.47;7390275;19;20006;-57
2023/03/05 09:21:13;;;;;;;7.53;1.40;;;;;;;3.12;72.85;101562.66;7389664;19;20022;-56
2023/03/05 09:23:40;;;;;;;6.05;2.10;;;;;;;3.18;72.80;101565.03;7391600;19;20343;-57
2023/03/05 09:26:07;;;;;;;6.22;1.65;;;;;;;3.16;72.86;101563.41;7390339;19;20460;-56
2023/03/05 09:28:32;;;;;;;10.20;2.80;;;;;;;3.14;72.93;101558.19;7391693;19;20019;-56
2023/03/05 09:31:02;;;;;;;12.15;4.38;;;;;;;3.18;73.23;101557.16;7390414;19;20443;-57
2023/03/05 09:33:28;;;;;;;12.48;4.63;;;;;;;3.16;73.36;101566.03;7392721;19;20305;-58
2023/03/05 09:35:54;;;;;;;9.95;4.45;;;;;;;3.21;73.09;101557.03;7389410;19;20027;-58
2023/03/05 09:38:20;;;;;;;11.63;3.72;;;;;;;3.32;73.01;101560.13;7389084;19;20333;-58
2023/03/05 09:41:02;;;;;;;8.88;3.30;;;;;;;3.26;72.69;101555.09;7389182;19;20014;-57
2023/03/05 09:43:48;;;;;;;7.28;2.47;;;;;;;3.26;72.47;101555.09;7390710;19;20467;-59
2023/03/05 09:46:19;;;;;;;7.28;2.20;;;;;;;3.35;72.05;101552.13;7390170;19;20069;-57
2023/03/05 09:48:56;;;;;;;7.78;2.30;;;;;;;3.32;72.09;101549.59;7391271;19;20054;-57
2023/03/05 09:51:30;;;;;;;6.72;2.65;;;;;;;3.38;72.06;101553.78;7390328;19;20553;-58
2023/03/05 09:53:58;;;;;;;10.45;2.88;;;;;;;3.39;71.69;101542.34;7389749;19;20009;-57
2023/03/05 09:56:33;;;;;;;6.47;1.92;;;;;;;3.45;70.84;101551.75;7389611;19;20474;-57
2023/03/05 09:59:19;;;;;;;12.18;2.80;;;;;;;3.43;71.59;101549.19;7390836;19;20006;-58
2023/03/05 10:01:47;;;;;;;9.43;1.83;;;;;;;3.26;71.93;101544.59;7393769;19;20009;-58
2023/03/05 10:04:32;;;;;;;7.15;2.10;;;;;;;3.28;71.97;101541.91;7398010;19;20002;-57
2023/03/05 10:07:07;;;;;;;5.10;1.67;;;;;;;3.30;71.61;101532.19;7398267;19;20009;-57
2023/03/05 10:09:38;;;;;;;6.68;1.73;;;;;;;3.33;71.72;101534.69;7397498;19;20006;-58
2023/03/05 10:12:23;;;;;;;7.93;2.28;;;;;;;3.57;71.09;101538.13;7397515;19;20466;-57
2023/03/05 10:14:49;;;;;;;5.57;2.20;;;;;;;3.73;70.49;101535.75;7397776;19;20005;-57
2023/03/05 10:17:33;;;;;;;8.98;3.00;;;;;;;3.89;69.74;101539.44;7397565;19;19998;-57
2023/03/05 10:20:23;;;;;;;8.40;3.00;;;;;;;3.91;69.65;101534.97;7395942;19;20680;-58
2023/03/05 10:23:12;;;;;;;8.05;2.17;;;;;;;3.76;69.80;101532.97;7397008;19;20127;-56
2023/03/05 10:26:00;;;;;;;8.73;2.60;;;;;;;3.84;70.17;101530.91;7397034;19;20013;-57
2023/03/05 10:28:35;;;;;;;6.85;1.83;;;;;;;4.07;69.15;101525.56;7397824;19;20007;-58
2023/03/05 10:31:13;;;;;;;6.28;1.85;;;;;;;4.28;68.41;101521.16;7395316;19;20030;-56
2023/03/05 10:33:48;;;;;;;4.30;1.50;;;;;;;4.28;68.44;101518.50;7397399;19;20007;-57
2023/03/05 10:36:25;;;;;;;3.92;1.13;;;;;;;4.19;68.29;101515.44;7396583;19;20006;-56
2023/03/05 10:42:41;;;;;;;3.63;1.25;;;;;;;3.93;68.91;101508.66;7390790;19;20019;-61
2023/03/05 10:45:21;;;;;;;4.15;1.23;;;;;;;3.81;70.09;101512.63;7393880;19;20018;-59
2023/03/05 10:47:50;;;;;;;7.28;1.13;;;;;;;3.67;70.52;101509.72;7396553;19;20011;-60
2023/03/05 10:50:22;;;;;;;3.92;0.90;;;;;;;3.60;71.24;101506.47;7395388;19;20014;-59
2023/03/05 10:53:12;;;;;;;4.72;0.95;;;;;;;3.52;71.60;101504.16;7396189;19;20002;-59
2023/03/05 10:55:38;;;;;;;4.70;1.00;;;;;;;3.56;72.45;101505.75;7394463;19;20005;-60
2023/03/05 10:58:16;;;;;;;7.22;1.30;;;;;;;3.66;71.91;101505.38;7394986;19;20006;-64
2023/03/05 11:00:57;;;;;;;6.32;1.27;;;;;;;3.80;71.60;101506.53;7395802;19;20005;-64
2023/03/05 11:03:22;;;;;;;3.60;1.30;;;;;;;4.07;70.84;101495.78;7393981;19;20015;-64
2023/03/05 11:05:58;;;;;;;6.20;1.52;;;;;;;4.12;70.79;101496.44;7394987;19;19995;-64
2023/03/05 11:08:33;;;;;;;4.18;1.20;;;;;;;4.02;69.88;101503.84;7394327;19;20006;-64
2023/03/05 11:11:08;;;;;;;3.35;0.93;;;;;;;3.93;70.16;101493.75;7392782;19;20030;-65
2023/03/05 11:13:37;;;;;;;3.78;1.02;;;;;;;4.03;70.09;101489.81;7391773;19;20478;-66
2023/03/05 11:16:05;;;;;;;4.60;1.10;;;;;;;4.25;69.62;101484.44;7395323;19;20013;-66
2023/03/05 11:18:36;;;;;;;3.50;1.00;;;;;;;4.17;70.03;101481.31;7392826;19;20470;-66
2023/03/05 11:21:31;;;;;;;6.90;1.40;;;;;;;4.20;69.86;101480.34;7393391;19;20571;-65
2023/03/05 11:24:09;;;;;;;3.95;1.00;;;;;;;4.08;70.20;101484.34;7393601;19;20608;-68
2023/03/05 11:26:35;;;;;;;2.40;1.02;;;;;;;4.02;70.79;101487.22;7393239;19;20118;-65
2023/03/05 11:29:03;;;;;;;5.22;1.25;;;;;;;3.94;70.52;101484.06;7394652;19;20010;-64
2023/03/05 11:31:31;;;;;;;4.85;1.00;;;;;;;3.84;70.87;101484.44;7393271;19;20002;-66
2023/03/05 11:34:00;;;;;;;3.05;0.85;;;;;;;3.82;71.18;101473.13;7394885;19;20066;-67
2023/03/05 11:36:35;;;;;;;2.42;0.65;;;;;;;3.45;72.14;101473.78;7394138;19;19999;-66